JST418 YSSY-YBCG
Flight info
| Callsign | JST418 |
|---|---|
| Flight time | N/A |
| Altitude | 37000 |
| Route | OLSEM Y193 BANDA Y43 GOMOL |
| Aircraft | A320/M-SDE3FGHIRWY/LB1 |
Departure
| Time | 2026-04-24 07:54 |
|---|---|
| Airport | Sydney Kingsford Smith International Airport (YSSY) |
Arrival
| Time | N/A |
|---|---|
| Airport | Gold Coast Airport (YBCG) |
| Time | Latitude | Longitude | Altitude | Speed | Heading |
|---|---|---|---|---|---|
| 2026-04-24 07:28 | -33.93486 | 151.17771 | 30 ft | 0 kts | 280° |
| 2026-04-24 07:37 | -33.93486 | 151.17775 | 30 ft | 2 kts | 281° |
| 2026-04-24 07:37 | -33.93491 | 151.17796 | 30 ft | 3 kts | 295° |
| 2026-04-24 07:38 | -33.93500 | 151.17817 | 29 ft | 3 kts | 283° |
| 2026-04-24 07:38 | -33.93500 | 151.17834 | 30 ft | 3 kts | 250° |
| 2026-04-24 07:38 | -33.93497 | 151.17843 | 29 ft | 3 kts | 204° |
| 2026-04-24 07:38 | -33.93485 | 151.17847 | 30 ft | 2 kts | 189° |
| 2026-04-24 07:39 | -33.93505 | 151.17843 | 30 ft | 3 kts | 189° |
| 2026-04-24 07:39 | -33.93525 | 151.17839 | 30 ft | 3 kts | 189° |
| 2026-04-24 07:39 | -33.93545 | 151.17835 | 29 ft | 3 kts | 189° |
| 2026-04-24 07:39 | -33.93565 | 151.17830 | 30 ft | 3 kts | 189° |
| 2026-04-24 07:40 | -33.93585 | 151.17826 | 30 ft | 3 kts | 189° |
| 2026-04-24 07:40 | -33.93603 | 151.17822 | 30 ft | 2 kts | 189° |
| 2026-04-24 07:40 | -33.93607 | 151.17821 | 30 ft | 0 kts | 189° |
| 2026-04-24 07:43 | -33.93612 | 151.17820 | 30 ft | 2 kts | 189° |
| 2026-04-24 07:43 | -33.93661 | 151.17807 | 30 ft | 5 kts | 193° |
| 2026-04-24 07:43 | -33.93707 | 151.17794 | 30 ft | 8 kts | 193° |
| 2026-04-24 07:43 | -33.93771 | 151.17775 | 30 ft | 10 kts | 195° |
| 2026-04-24 07:44 | -33.93841 | 151.17762 | 30 ft | 9 kts | 172° |
| 2026-04-24 07:44 | -33.93899 | 151.17778 | 29 ft | 9 kts | 168° |
| 2026-04-24 07:44 | -33.93941 | 151.17789 | 29 ft | 0 kts | 167° |
| 2026-04-24 07:44 | -33.93989 | 151.17803 | 29 ft | 15 kts | 166° |
| 2026-04-24 07:45 | -33.94098 | 151.17830 | 29 ft | 17 kts | 168° |
| 2026-04-24 07:45 | -33.94213 | 151.17861 | 30 ft | 17 kts | 168° |
| 2026-04-24 07:45 | -33.94318 | 151.17887 | 30 ft | 15 kts | 168° |
| 2026-04-24 07:45 | -33.94423 | 151.17912 | 30 ft | 15 kts | 174° |
| 2026-04-24 07:46 | -33.94525 | 151.17882 | 30 ft | 15 kts | 173° |
| 2026-04-24 07:46 | -33.94626 | 151.17909 | 30 ft | 15 kts | 167° |
| 2026-04-24 07:46 | -33.94727 | 151.17934 | 30 ft | 15 kts | 167° |
| 2026-04-24 07:46 | -33.94844 | 151.17964 | 30 ft | 18 kts | 168° |
| 2026-04-24 07:47 | -33.94965 | 151.17997 | 30 ft | 18 kts | 168° |
| 2026-04-24 07:47 | -33.95083 | 151.18031 | 30 ft | 17 kts | 152° |
| 2026-04-24 07:47 | -33.95094 | 151.18134 | 30 ft | 6 kts | 80° |
| 2026-04-24 07:47 | -33.95090 | 151.18158 | 30 ft | 2 kts | 77° |
| 2026-04-24 07:48 | -33.95086 | 151.18179 | 30 ft | 6 kts | 77° |
| 2026-04-24 07:48 | -33.95071 | 151.18267 | 30 ft | 16 kts | 77° |
| 2026-04-24 07:48 | -33.95041 | 151.18431 | 30 ft | 17 kts | 77° |
| 2026-04-24 07:48 | -33.95036 | 151.18464 | 30 ft | 0 kts | 79° |
| 2026-04-24 07:51 | -33.95033 | 151.18477 | 29 ft | 9 kts | 79° |
| 2026-04-24 07:51 | -33.95001 | 151.18655 | 30 ft | 28 kts | 78° |
| 2026-04-24 07:51 | -33.94994 | 151.18835 | 26 ft | 12 kts | 147° |
| 2026-04-24 07:52 | -33.95042 | 151.18848 | 24 ft | 0 kts | 167° |
| 2026-04-24 07:53 | -33.95050 | 151.18850 | 24 ft | 12 kts | 167° |
| 2026-04-24 07:53 | -33.95394 | 151.18939 | 24 ft | 85 kts | 168° |
| 2026-04-24 07:53 | -33.96152 | 151.19137 | 28 ft | 138 kts | 168° |
| 2026-04-24 07:53 | -33.97176 | 151.19410 | 411 ft | 153 kts | 165° |
| 2026-04-24 07:54 | -33.98156 | 151.19870 | 1061 ft | 155 kts | 130° |
| 2026-04-24 07:54 | -33.98678 | 151.20972 | 1635 ft | 152 kts | 113° |
| 2026-04-24 07:54 | -33.99249 | 151.22115 | 2069 ft | 170 kts | 123° |
| 2026-04-24 07:54 | -33.99976 | 151.23358 | 2385 ft | 194 kts | 124° |
| 2026-04-24 07:55 | -34.00854 | 151.24729 | 2738 ft | 220 kts | 135° |
| 2026-04-24 07:55 | -34.02110 | 151.25962 | 3210 ft | 245 kts | 140° |
| 2026-04-24 07:55 | -34.03483 | 151.27268 | 3994 ft | 256 kts | 140° |
| 2026-04-24 07:55 | -34.04896 | 151.28620 | 4938 ft | 262 kts | 140° |
| 2026-04-24 07:56 | -34.06333 | 151.30003 | 5867 ft | 266 kts | 139° |
| 2026-04-24 07:56 | -34.07788 | 151.31413 | 6806 ft | 271 kts | 139° |
| 2026-04-24 07:56 | -34.09264 | 151.32850 | 7703 ft | 274 kts | 139° |
| 2026-04-24 07:56 | -34.10710 | 151.34367 | 8609 ft | 276 kts | 129° |
| 2026-04-24 07:57 | -34.11614 | 151.36385 | 9472 ft | 277 kts | 103° |
| 2026-04-24 07:57 | -34.11681 | 151.38697 | 10347 ft | 280 kts | 78° |
| 2026-04-24 07:57 | -34.10874 | 151.40883 | 10884 ft | 297 kts | 53° |
| 2026-04-24 07:57 | -34.09470 | 151.42770 | 11534 ft | 305 kts | 49° |
| 2026-04-24 07:58 | -34.08014 | 151.44667 | 12276 ft | 310 kts | 48° |
| 2026-04-24 07:58 | -34.06350 | 151.46352 | 13024 ft | 317 kts | 35° |
| 2026-04-24 07:58 | -34.04345 | 151.47580 | 13473 ft | 335 kts | 21° |
| 2026-04-24 07:58 | -34.02085 | 151.48355 | 13994 ft | 346 kts | 17° |
| 2026-04-24 07:59 | -33.99743 | 151.49109 | 14627 ft | 351 kts | 17° |
| 2026-04-24 07:59 | -33.97366 | 151.49876 | 15276 ft | 355 kts | 17° |
| 2026-04-24 07:59 | -33.94972 | 151.50653 | 15924 ft | 359 kts | 17° |
| 2026-04-24 07:59 | -33.92546 | 151.51442 | 16568 ft | 362 kts | 17° |
| 2026-04-24 08:00 | -33.90102 | 151.52241 | 17206 ft | 366 kts | 17° |
| 2026-04-24 08:00 | -33.87638 | 151.53051 | 17852 ft | 369 kts | 18° |
| 2026-04-24 08:00 | -33.85149 | 151.53869 | 18503 ft | 373 kts | 18° |
| 2026-04-24 08:00 | -33.82635 | 151.54691 | 19099 ft | 376 kts | 18° |
| 2026-04-24 08:01 | -33.80096 | 151.55520 | 19665 ft | 380 kts | 17° |
| 2026-04-24 08:01 | -33.77533 | 151.56355 | 20236 ft | 384 kts | 17° |
| 2026-04-24 08:01 | -33.74941 | 151.57202 | 20809 ft | 388 kts | 18° |
| 2026-04-24 08:01 | -33.72314 | 151.58059 | 21355 ft | 393 kts | 18° |
| 2026-04-24 08:02 | -33.69706 | 151.58905 | 21899 ft | 397 kts | 18° |
| 2026-04-24 08:02 | -33.66989 | 151.59789 | 22431 ft | 400 kts | 19° |
| 2026-04-24 08:02 | -33.64388 | 151.60982 | 22956 ft | 401 kts | 29° |
| 2026-04-24 08:02 | -33.61994 | 151.62694 | 23498 ft | 402 kts | 37° |
| 2026-04-24 08:03 | -33.59653 | 151.64556 | 24043 ft | 406 kts | 37° |
| 2026-04-24 08:03 | -33.57286 | 151.66425 | 24506 ft | 409 kts | 36° |
| 2026-04-24 08:03 | -33.54897 | 151.68300 | 24962 ft | 412 kts | 37° |
| 2026-04-24 08:03 | -33.52489 | 151.70181 | 25424 ft | 414 kts | 36° |
| 2026-04-24 08:04 | -33.50004 | 151.71960 | 25867 ft | 420 kts | 29° |
| 2026-04-24 08:04 | -33.47269 | 151.73254 | 26295 ft | 426 kts | 19° |
| 2026-04-24 08:04 | -33.44392 | 151.74175 | 26730 ft | 429 kts | 17° |
| 2026-04-24 08:04 | -33.41500 | 151.75100 | 27158 ft | 432 kts | 18° |
| 2026-04-24 08:05 | -33.38592 | 151.76042 | 27568 ft | 434 kts | 18° |
| 2026-04-24 08:05 | -33.35708 | 151.76980 | 27976 ft | 437 kts | 18° |
| 2026-04-24 08:05 | -33.32768 | 151.77937 | 28385 ft | 439 kts | 18° |
| 2026-04-24 08:05 | -33.29814 | 151.78897 | 28813 ft | 441 kts | 18° |
| 2026-04-24 08:06 | -33.26847 | 151.79855 | 29213 ft | 443 kts | 18° |
| 2026-04-24 08:06 | -33.23854 | 151.80817 | 29604 ft | 446 kts | 18° |
| 2026-04-24 08:06 | -33.20854 | 151.81781 | 29998 ft | 448 kts | 18° |
| 2026-04-24 08:06 | -33.17833 | 151.82754 | 30390 ft | 451 kts | 18° |
| 2026-04-24 08:07 | -33.14793 | 151.83734 | 30740 ft | 453 kts | 17° |
| 2026-04-24 08:07 | -33.11740 | 151.84720 | 31053 ft | 456 kts | 18° |
| 2026-04-24 08:07 | -33.08669 | 151.85710 | 31379 ft | 458 kts | 18° |
| 2026-04-24 08:07 | -33.05581 | 151.86704 | 31679 ft | 461 kts | 18° |
| 2026-04-24 08:08 | -33.02473 | 151.87705 | 31968 ft | 464 kts | 18° |
| 2026-04-24 08:08 | -32.99351 | 151.88708 | 32263 ft | 466 kts | 18° |
| 2026-04-24 08:08 | -32.96217 | 151.89710 | 32673 ft | 466 kts | 18° |
| 2026-04-24 08:09 | -32.89951 | 151.91709 | 33471 ft | 466 kts | 18° |
| 2026-04-24 08:09 | -32.86815 | 151.92711 | 33871 ft | 467 kts | 18° |
| 2026-04-24 08:09 | -32.83681 | 151.93714 | 34289 ft | 467 kts | 18° |
| 2026-04-24 08:09 | -32.80550 | 151.94717 | 34702 ft | 466 kts | 18° |
| 2026-04-24 08:10 | -32.77419 | 151.95719 | 35058 ft | 466 kts | 18° |
| 2026-04-24 08:10 | -32.74290 | 151.96718 | 35382 ft | 466 kts | 18° |
| 2026-04-24 08:10 | -32.71192 | 151.97707 | 35689 ft | 467 kts | 18° |
| 2026-04-24 08:10 | -32.68050 | 151.98705 | 35995 ft | 468 kts | 18° |
| 2026-04-24 08:11 | -32.64907 | 151.99703 | 36293 ft | 468 kts | 18° |
| 2026-04-24 08:11 | -32.61752 | 152.00705 | 36585 ft | 469 kts | 17° |
| 2026-04-24 08:11 | -32.58597 | 152.01706 | 36876 ft | 470 kts | 17° |
| 2026-04-24 08:11 | -32.55442 | 152.02707 | 37160 ft | 470 kts | 17° |
| 2026-04-24 08:12 | -32.52278 | 152.03712 | 37413 ft | 472 kts | 17° |
| 2026-04-24 08:12 | -32.45895 | 152.05741 | 37471 ft | 481 kts | 17° |
| 2026-04-24 08:13 | -32.39355 | 152.07814 | 37468 ft | 491 kts | 17° |
| 2026-04-24 08:13 | -32.32738 | 152.09899 | 37466 ft | 493 kts | 17° |
| 2026-04-24 08:14 | -32.26112 | 152.11993 | 37469 ft | 493 kts | 17° |
| 2026-04-24 08:14 | -32.19526 | 152.14067 | 37467 ft | 493 kts | 17° |
| 2026-04-24 08:15 | -32.12885 | 152.16145 | 37474 ft | 494 kts | 17° |
| 2026-04-24 08:15 | -32.06236 | 152.18225 | 37482 ft | 495 kts | 17° |
| 2026-04-24 08:16 | -31.99580 | 152.20313 | 37498 ft | 495 kts | 17° |
| 2026-04-24 08:16 | -31.92921 | 152.22406 | 37497 ft | 495 kts | 17° |
| 2026-04-24 08:17 | -31.86257 | 152.24493 | 37498 ft | 495 kts | 17° |
| 2026-04-24 08:17 | -31.79598 | 152.26572 | 37498 ft | 495 kts | 17° |
| 2026-04-24 08:18 | -31.72930 | 152.28650 | 37499 ft | 496 kts | 17° |
| 2026-04-24 08:18 | -31.66260 | 152.30728 | 37495 ft | 496 kts | 17° |
| 2026-04-24 08:19 | -31.59628 | 152.32783 | 37494 ft | 496 kts | 17° |
| 2026-04-24 08:19 | -31.52957 | 152.34852 | 37508 ft | 496 kts | 17° |
| 2026-04-24 08:20 | -31.46272 | 152.36930 | 37504 ft | 497 kts | 17° |
| 2026-04-24 08:20 | -31.39592 | 152.38998 | 37503 ft | 497 kts | 17° |
| 2026-04-24 08:21 | -31.32901 | 152.41053 | 37496 ft | 497 kts | 17° |
| 2026-04-24 08:21 | -31.26216 | 152.43118 | 37499 ft | 497 kts | 16° |
| 2026-04-24 08:22 | -31.19530 | 152.45186 | 37496 ft | 497 kts | 16° |
| 2026-04-24 08:22 | -31.12842 | 152.47241 | 37499 ft | 497 kts | 16° |
| 2026-04-24 08:23 | -31.06145 | 152.49296 | 37499 ft | 497 kts | 15° |
| 2026-04-24 08:23 | -30.99460 | 152.51345 | 37495 ft | 497 kts | 15° |
| 2026-04-24 08:24 | -30.92767 | 152.53402 | 37508 ft | 497 kts | 15° |
| 2026-04-24 08:24 | -30.86086 | 152.55436 | 37503 ft | 496 kts | 15° |
| 2026-04-24 08:25 | -30.79435 | 152.57566 | 37502 ft | 495 kts | 21° |
| 2026-04-24 08:25 | -30.73054 | 152.60527 | 37498 ft | 494 kts | 22° |
| 2026-04-24 08:26 | -30.66677 | 152.63500 | 37497 ft | 494 kts | 22° |
| 2026-04-24 08:26 | -30.60335 | 152.66432 | 37503 ft | 494 kts | 22° |
| 2026-04-24 08:27 | -30.53937 | 152.69381 | 37488 ft | 495 kts | 22° |
| 2026-04-24 08:27 | -30.47526 | 152.72344 | 37494 ft | 496 kts | 22° |